Time;durP1;ratioP1;P1;durP2;ratioP2;P2;SDS_P1;SDS_P2;PMS_P1;PMS_P2;Temp;Humidity;BMP_temperature;BMP_pressure;BME280_temperature;BME280_humidity;BME280_pressure;Samples;Min_cycle;Max_cycle;Signal;HPM_P1;HPM_P2
2022/02/22 00:00:22;;;;;;;6.42;3.12;;;;;;;6.04;71.56;98014.32;1786710;80;21796;-38
2022/02/22 00:02:50;;;;;;;4.12;2.90;;;;;;;6.12;71.30;98020.57;1786618;80;21116;-38
2022/02/22 00:05:16;;;;;;;4.95;3.10;;;;;;;6.22;71.05;98016.48;1786967;80;21464;-38
2022/02/22 00:07:43;;;;;;;5.37;3.08;;;;;;;6.30;70.86;98022.94;1787099;80;20922;-38
2022/02/22 00:10:11;;;;;;;4.53;2.90;;;;;;;6.33;70.76;98018.20;1786848;79;21590;-38
2022/02/22 00:12:38;;;;;;;3.70;3.02;;;;;;;6.35;70.56;98013.77;1787259;79;21030;-38
2022/02/22 00:15:06;;;;;;;5.20;3.22;;;;;;;6.35;70.38;98012.43;1786696;80;21122;-38
2022/02/22 00:17:36;;;;;;;4.40;3.20;;;;;;;6.34;70.27;98007.61;1786765;80;20945;-38
2022/02/22 00:20:05;;;;;;;3.98;2.70;;;;;;;6.36;70.08;98004.00;1786838;79;21048;-38
2022/02/22 00:22:34;;;;;;;6.08;2.70;;;;;;;6.38;69.89;98005.77;1787398;79;21080;-38
2022/02/22 00:25:01;;;;;;;5.80;3.10;;;;;;;6.43;69.85;97997.37;1786841;80;21089;-38
2022/02/22 00:27:28;;;;;;;4.45;3.30;;;;;;;6.44;69.82;97999.47;1786865;79;21080;-38
2022/02/22 00:29:55;;;;;;;4.15;2.98;;;;;;;6.45;69.69;98003.16;1787098;80;20937;-38
2022/02/22 00:32:21;;;;;;;3.40;2.95;;;;;;;6.43;69.68;98005.45;1787375;80;21003;-38
2022/02/22 00:34:49;;;;;;;4.62;3.22;;;;;;;6.44;69.54;98009.67;1786964;79;21103;-38
2022/02/22 00:37:15;;;;;;;4.83;3.30;;;;;;;6.39;69.51;97995.78;1788188;80;21029;-38
2022/02/22 00:39:42;;;;;;;3.77;3.10;;;;;;;6.43;69.42;98007.37;1789546;79;21864;-38
2022/02/22 00:42:08;;;;;;;3.25;2.67;;;;;;;6.45;69.27;97998.34;1789680;80;21000;-38
2022/02/22 00:44:35;;;;;;;4.55;3.22;;;;;;;6.50;69.27;97998.02;1789345;80;20989;-38
2022/02/22 00:47:04;;;;;;;4.37;3.10;;;;;;;6.45;69.23;97992.39;1789431;79;21495;-38
2022/02/22 00:49:30;;;;;;;5.00;3.40;;;;;;;6.43;69.28;98000.07;1789199;80;21020;-38
2022/02/22 00:51:57;;;;;;;4.37;3.10;;;;;;;6.38;69.29;98000.39;1789327;79;21097;-38
2022/02/22 00:54:23;;;;;;;4.58;3.30;;;;;;;6.32;69.32;97999.70;1789152;80;21262;-38
2022/02/22 00:56:50;;;;;;;4.95;3.12;;;;;;;6.25;69.47;98011.70;1789233;80;21454;-38
2022/02/22 00:59:17;;;;;;;4.15;3.08;;;;;;;6.19;69.66;98007.23;1789568;79;21000;-38
2022/02/22 01:01:43;;;;;;;4.60;3.22;;;;;;;6.22;69.74;98007.84;1789615;80;21044;-38
2022/02/22 01:04:10;;;;;;;4.65;3.50;;;;;;;6.20;69.89;98010.11;1789419;80;21113;-38
2022/02/22 01:06:38;;;;;;;5.28;3.60;;;;;;;6.15;70.20;98017.14;1789486;80;20981;-38
2022/02/22 01:09:06;;;;;;;4.80;3.42;;;;;;;6.04;70.55;98022.39;1789342;80;20968;-38
2022/02/22 01:11:35;;;;;;;5.47;3.87;;;;;;;5.95;70.94;98024.56;1789469;80;21021;-38
2022/02/22 01:14:02;;;;;;;4.97;3.72;;;;;;;5.90;71.23;98020.05;1789453;80;21070;-38
2022/02/22 01:16:29;;;;;;;5.15;3.83;;;;;;;5.88;71.55;98020.41;1789334;79;21076;-38
2022/02/22 01:18:55;;;;;;;5.15;4.10;;;;;;;5.89;71.67;98023.30;1789420;80;21029;-38
2022/02/22 01:21:22;;;;;;;5.15;4.00;;;;;;;5.85;71.85;98015.73;1789483;79;21024;-38
2022/02/22 01:23:48;;;;;;;7.87;4.15;;;;;;;5.84;72.04;98022.23;1789668;79;21025;-38
2022/02/22 01:26:15;;;;;;;4.12;3.60;;;;;;;5.82;72.07;98027.75;1790098;80;20989;-38
2022/02/22 01:28:41;;;;;;;6.80;4.50;;;;;;;5.83;72.15;98021.24;1789840;80;21126;-38
2022/02/22 01:31:09;;;;;;;5.72;4.00;;;;;;;5.57;71.95;97973.01;1789663;80;20945;-38
2022/02/22 01:33:36;;;;;;;7.28;5.03;;;;;;;5.98;71.96;98021.70;1789648;79;20953;-38
2022/02/22 01:36:04;;;;;;;6.15;4.70;;;;;;;6.01;71.86;98002.92;1789795;80;20981;-38
2022/02/22 01:38:31;;;;;;;6.87;4.60;;;;;;;6.03;71.79;98006.04;1779025;80;21053;-38
2022/02/22 01:40:58;;;;;;;6.90;4.60;;;;;;;6.05;71.67;98008.38;1781599;80;21093;-38
2022/02/22 01:43:24;;;;;;;5.17;3.87;;;;;;;6.04;71.56;98013.54;1781572;80;21052;-38
2022/02/22 01:45:51;;;;;;;4.95;4.00;;;;;;;6.07;71.32;98010.89;1781630;80;21024;-38
2022/02/22 01:48:18;;;;;;;6.00;4.62;;;;;;;6.14;71.14;98019.66;1781798;80;21486;-38
2022/02/22 01:50:44;;;;;;;6.45;4.47;;;;;;;6.19;71.07;98019.34;1781795;80;21490;-38
2022/02/22 01:53:11;;;;;;;5.28;4.50;;;;;;;6.21;71.04;98015.70;1781702;80;21167;-38
2022/02/22 01:55:38;;;;;;;6.10;4.72;;;;;;;6.21;70.86;98013.02;1781628;80;21174;-38
2022/02/22 01:58:05;;;;;;;7.65;5.12;;;;;;;6.25;70.88;98007.11;1781687;80;20996;-38
2022/02/22 02:00:32;;;;;;;6.08;5.22;;;;;;;6.27;70.63;98007.53;1781725;80;21558;-38
2022/02/22 02:02:59;;;;;;;6.70;4.90;;;;;;;6.27;70.42;98011.56;1781742;80;21044;-38
2022/02/22 02:05:26;;;;;;;6.92;4.80;;;;;;;6.23;70.43;98017.47;1781572;80;21085;-38
2022/02/22 02:07:54;;;;;;;6.60;4.95;;;;;;;6.23;70.31;98016.12;1781614;80;20909;-38
2022/02/22 02:10:21;;;;;;;7.03;5.08;;;;;;;6.20;70.37;98020.88;1781765;80;20999;-38
2022/02/22 02:12:47;;;;;;;6.92;5.55;;;;;;;6.14;70.43;98027.72;1781666;80;21270;-38
2022/02/22 02:15:14;;;;;;;6.92;5.40;;;;;;;6.09;70.58;98024.00;1781879;80;21562;-38
2022/02/22 02:17:40;;;;;;;6.22;5.00;;;;;;;6.05;70.54;98027.20;1781880;80;21140;-38
2022/02/22 02:20:11;;;;;;;5.85;5.05;;;;;;;6.03;70.53;98033.50;1781929;80;21486;-38
2022/02/22 02:22:38;;;;;;;9.05;5.60;;;;;;;6.00;70.53;98036.93;1782201;80;20905;-38
2022/02/22 02:25:06;;;;;;;6.65;5.10;;;;;;;6.00;70.43;98043.05;1781847;80;21506;-38
2022/02/22 02:27:33;;;;;;;7.50;5.25;;;;;;;6.03;70.38;98042.92;1782082;80;21052;-38
2022/02/22 02:29:59;;;;;;;7.95;5.55;;;;;;;6.03;70.49;98042.92;1781639;80;21482;-38
2022/02/22 02:32:27;;;;;;;7.60;5.62;;;;;;;6.06;70.54;98044.88;1781951;80;20957;-38
2022/02/22 02:34:53;;;;;;;9.08;5.75;;;;;;;6.05;70.56;98044.69;1781666;80;21005;-38
2022/02/22 02:37:20;;;;;;;7.10;5.87;;;;;;;6.03;70.63;98050.42;1782380;79;20980;-38
2022/02/22 02:39:46;;;;;;;9.50;6.30;;;;;;;6.01;70.62;98059.98;1786862;79;21813;-38
2022/02/22 02:42:16;;;;;;;8.55;5.97;;;;;;;5.97;70.63;98063.19;1786885;79;21140;-38
2022/02/22 02:44:43;;;;;;;6.37;4.92;;;;;;;5.90;70.70;98064.44;1786834;79;20996;-38
2022/02/22 02:47:10;;;;;;;7.12;5.67;;;;;;;5.89;70.84;98068.25;1787190;80;20957;-38
2022/02/22 02:49:38;;;;;;;11.28;5.80;;;;;;;5.89;70.90;98077.09;1786896;80;21459;-38
2022/02/22 02:52:07;;;;;;;7.42;5.85;;;;;;;5.85;70.98;98073.55;1787371;80;21020;-39
2022/02/22 02:54:35;;;;;;;9.20;6.00;;;;;;;5.81;71.03;98078.66;1786947;79;21125;-38
2022/02/22 02:57:01;;;;;;;8.00;6.50;;;;;;;5.78;71.09;98086.86;1787117;79;20973;-38
2022/02/22 02:59:28;;;;;;;9.03;6.35;;;;;;;5.72;71.21;98085.59;1786855;79;21032;-38
2022/02/22 03:01:55;;;;;;;8.30;5.62;;;;;;;5.73;71.16;98094.45;1787174;80;20969;-38
2022/02/22 03:04:21;;;;;;;7.22;5.87;;;;;;;5.79;70.91;98097.84;1786947;80;21491;-38
2022/02/22 03:06:48;;;;;;;8.15;5.67;;;;;;;5.81;70.59;98098.83;1787211;80;21078;-38
2022/02/22 03:09:14;;;;;;;8.78;6.33;;;;;;;5.72;70.61;98106.33;1786857;80;21016;-38
2022/02/22 03:11:40;;;;;;;8.98;6.50;;;;;;;5.62;70.80;98101.75;1787394;80;21008;-38
2022/02/22 03:14:07;;;;;;;10.13;6.80;;;;;;;5.54;71.05;98104.11;1787184;80;21064;-38
2022/02/22 03:16:34;;;;;;;8.53;6.08;;;;;;;5.48;71.21;98108.22;1787122;80;21079;-38
2022/02/22 03:19:04;;;;;;;7.20;5.70;;;;;;;5.44;71.24;98115.44;1787180;80;21835;-38
2022/02/22 03:21:31;;;;;;;8.83;6.53;;;;;;;5.43;71.31;98112.53;1787218;80;20969;-38
2022/02/22 03:23:59;;;;;;;8.35;6.40;;;;;;;5.43;71.43;98109.84;1786882;80;20929;-38
2022/02/22 03:26:27;;;;;;;10.65;6.83;;;;;;;5.37;71.59;98117.23;1787144;79;21076;-38
2022/02/22 03:28:55;;;;;;;11.75;7.28;;;;;;;5.32;71.79;98122.89;1786989;79;21612;-38
2022/02/22 03:31:22;;;;;;;11.30;7.33;;;;;;;5.27;71.98;98127.98;1787179;80;21589;-38
2022/02/22 03:33:52;;;;;;;9.75;6.92;;;;;;;5.20;72.12;98129.17;1786693;79;21032;-38
2022/02/22 03:36:17;;;;;;;8.78;6.70;;;;;;;5.18;72.29;98126.83;1787203;79;20926;-38
2022/02/22 03:38:44;;;;;;;13.18;6.83;;;;;;;5.19;72.30;98126.27;1788283;80;21463;-38
2022/02/22 03:41:10;;;;;;;9.78;6.97;;;;;;;5.18;72.37;98119.36;1789599;80;21033;-38
2022/02/22 03:43:36;;;;;;;11.75;7.10;;;;;;;5.16;72.58;98128.33;1789311;79;21594;-38
2022/02/22 03:46:03;;;;;;;9.70;6.60;;;;;;;5.14;72.56;98131.36;1789715;80;20973;-38
2022/02/22 03:48:31;;;;;;;8.90;6.75;;;;;;;5.13;72.59;98133.08;1789246;79;20926;-38
2022/02/22 03:50:57;;;;;;;10.80;7.05;;;;;;;5.09;72.49;98136.23;1789284;79;20882;-38
2022/02/22 03:53:25;;;;;;;8.95;7.00;;;;;;;5.06;72.37;98132.35;1789400;78;22053;-38
2022/02/22 03:55:52;;;;;;;10.18;6.87;;;;;;;5.04;72.43;98133.82;1783291;80;21139;-38
2022/02/22 03:58:19;;;;;;;10.05;7.37;;;;;;;5.02;72.55;98134.19;1783310;80;21008;-38
2022/02/22 04:00:45;;;;;;;10.15;6.97;;;;;;;4.99;72.54;98136.78;1783508;80;21546;-38
2022/02/22 04:03:12;;;;;;;9.73;6.92;;;;;;;4.96;72.61;98134.81;1783417;79;21028;-38
2022/02/22 04:05:39;;;;;;;8.63;6.90;;;;;;;4.93;72.58;98142.23;1788690;78;21024;-38
2022/02/22 04:08:07;;;;;;;11.28;7.30;;;;;;;4.91;72.61;98147.17;1789520;80;21130;-38
2022/02/22 04:10:33;;;;;;;8.73;7.20;;;;;;;4.95;72.49;98150.70;1789482;79;21777;-38
2022/02/22 04:13:01;;;;;;;10.58;7.78;;;;;;;4.99;72.41;98149.65;1789601;79;21491;-37
2022/02/22 04:15:28;;;;;;;11.60;8.65;;;;;;;4.96;72.40;98150.92;1789382;80;21573;-38
2022/02/22 04:17:54;;;;;;;12.03;8.25;;;;;;;4.89;72.44;98145.42;1789476;80;21016;-38
2022/02/22 04:20:21;;;;;;;11.28;7.92;;;;;;;4.84;72.67;98137.63;1789261;79;21102;-38
2022/02/22 04:22:47;;;;;;;11.15;7.95;;;;;;;4.80;72.74;98145.03;1789383;79;20992;-38
2022/02/22 04:25:14;;;;;;;10.35;7.70;;;;;;;4.83;72.73;98139.53;1789553;79;21078;-38
2022/02/22 04:27:40;;;;;;;8.43;7.12;;;;;;;4.88;72.62;98144.64;1789304;80;20985;-38
2022/02/22 04:30:11;;;;;;;9.70;7.62;;;;;;;4.94;72.63;98145.14;1789427;79;20990;-38
2022/02/22 04:32:39;;;;;;;10.00;7.80;;;;;;;4.95;72.71;98149.36;1789454;80;21137;-38
2022/02/22 04:35:07;;;;;;;11.75;7.80;;;;;;;4.97;72.67;98147.12;1789240;79;21705;-38
2022/02/22 04:37:36;;;;;;;11.38;8.03;;;;;;;4.98;72.54;98151.36;1789223;79;22034;-40
2022/02/22 04:40:04;;;;;;;10.82;7.37;;;;;;;4.63;72.29;98107.84;1780983;80;21012;-38
2022/02/22 04:42:31;;;;;;;10.00;7.50;;;;;;;4.98;72.05;98157.52;1780910;80;21028;-38
2022/02/22 04:44:59;;;;;;;9.83;7.55;;;;;;;5.01;71.97;98162.17;1781171;80;21145;-38
2022/02/22 04:47:26;;;;;;;10.88;7.62;;;;;;;5.03;71.85;98161.83;1780955;80;21553;-38
2022/02/22 04:49:52;;;;;;;11.35;8.23;;;;;;;5.00;71.77;98160.61;1780873;80;21058;-38
2022/02/22 04:53:26;;;;;;;11.40;8.48;;;;;;;5.04;71.66;98160.68;1830312;78;22593;-38
2022/02/22 04:55:52;;;;;;;12.63;9.33;;;;;;;4.92;71.67;98160.25;1803404;79;20998;-38
2022/02/22 04:58:19;;;;;;;12.00;7.85;;;;;;;4.91;71.64;98158.69;1803333;79;21058;-38
2022/02/22 05:00:47;;;;;;;11.33;8.35;;;;;;;4.96;71.44;98164.35;1803234;79;20959;-38
2022/02/22 05:03:14;;;;;;;10.82;8.25;;;;;;;5.01;71.14;98176.95;1803159;79;20982;-38
2022/02/22 05:05:41;;;;;;;11.93;7.90;;;;;;;5.01;70.96;98178.29;1802959;79;21505;-38
2022/02/22 05:08:08;;;;;;;11.15;8.20;;;;;;;4.94;71.04;98178.71;1803027;79;20950;-38
2022/02/22 05:10:36;;;;;;;12.85;8.08;;;;;;;4.88;71.10;98184.13;1803063;79;21134;-38
2022/02/22 05:13:02;;;;;;;12.68;8.20;;;;;;;4.79;71.24;98189.11;1802809;79;21005;-38
2022/02/22 05:15:33;;;;;;;12.13;7.40;;;;;;;4.73;71.33;98189.19;1803059;79;21870;-38
2022/02/22 05:18:00;;;;;;;11.00;7.42;;;;;;;4.74;71.37;98194.75;1803125;79;21504;-38
2022/02/22 05:20:29;;;;;;;11.10;7.53;;;;;;;4.80;71.27;98202.76;1803035;79;21528;-37
2022/02/22 05:22:56;;;;;;;11.80;8.13;;;;;;;4.85;71.12;98213.01;1803058;79;21149;-38
2022/02/22 05:25:23;;;;;;;12.10;7.60;;;;;;;4.80;71.22;98216.18;1803030;79;21018;-38
2022/02/22 05:27:49;;;;;;;14.18;8.90;;;;;;;4.76;71.36;98226.06;1803089;79;21779;-38
2022/02/22 05:30:18;;;;;;;13.50;9.28;;;;;;;4.70;71.47;98232.04;1803023;79;21040;-38
2022/02/22 05:32:45;;;;;;;13.45;9.40;;;;;;;4.64;71.63;98224.84;1802910;79;20995;-38
2022/02/22 05:35:13;;;;;;;13.48;8.75;;;;;;;4.59;71.81;98234.49;1801287;79;21146;-38
2022/02/22 05:37:40;;;;;;;11.43;9.28;;;;;;;4.63;71.79;98224.61;1801255;79;20996;-38
2022/02/22 05:40:08;;;;;;;14.47;10.15;;;;;;;4.66;71.79;98230.62;1733083;82;21251;-38
2022/02/22 05:42:37;;;;;;;14.43;11.00;;;;;;;4.65;71.83;98237.11;1750255;82;21045;-38
2022/02/22 05:45:06;;;;;;;19.07;11.60;;;;;;;4.62;72.00;98237.03;1750449;82;21100;-38
2022/02/22 05:47:33;;;;;;;16.45;11.43;;;;;;;4.58;72.10;98234.27;1750269;82;21129;-38
2022/02/22 05:49:59;;;;;;;16.40;11.30;;;;;;;4.57;72.15;98240.76;1733476;82;21504;-38
2022/02/22 05:52:26;;;;;;;14.60;10.55;;;;;;;4.58;72.11;98247.69;1750420;82;21038;-38
2022/02/22 05:54:52;;;;;;;13.85;10.25;;;;;;;4.65;71.94;98250.53;1723837;83;21605;-38
2022/02/22 05:57:19;;;;;;;15.28;10.38;;;;;;;4.68;71.89;98251.20;1737231;82;21002;-38
2022/02/22 05:59:45;;;;;;;14.85;10.15;;;;;;;4.68;71.97;98259.25;1723746;83;21570;-38
2022/02/22 06:02:11;;;;;;;13.88;10.30;;;;;;;4.68;71.97;98257.91;1736863;82;21049;-38
2022/02/22 06:04:38;;;;;;;16.97;11.88;;;;;;;4.67;71.95;98259.59;1723177;83;21080;-38
2022/02/22 06:07:05;;;;;;;14.78;10.85;;;;;;;4.63;71.96;98260.85;1736315;82;21062;-38
2022/02/22 06:09:32;;;;;;;15.40;10.60;;;;;;;4.61;71.92;98265.77;1722974;83;21776;-38
2022/02/22 06:11:59;;;;;;;14.78;10.03;;;;;;;4.67;71.95;98271.11;1736330;82;21153;-38
2022/02/22 06:14:25;;;;;;;14.58;9.93;;;;;;;4.70;71.93;98271.75;1722830;83;20949;-38
2022/02/22 06:16:53;;;;;;;14.25;10.72;;;;;;;4.69;71.92;98271.55;1722878;83;21020;-38
2022/02/22 06:19:22;;;;;;;14.30;10.53;;;;;;;4.71;71.91;98273.88;1736562;82;21543;-38
2022/02/22 06:21:49;;;;;;;14.45;10.25;;;;;;;4.70;71.77;98274.99;1723082;83;21009;-38
2022/02/22 06:24:15;;;;;;;11.90;8.65;;;;;;;4.71;71.70;98281.36;1736654;82;21823;-38
2022/02/22 06:26:42;;;;;;;12.53;8.88;;;;;;;4.74;71.68;98284.69;1722986;83;21000;-38
2022/02/22 06:29:09;;;;;;;13.13;8.23;;;;;;;4.81;71.67;98282.75;1736646;82;20950;-38
2022/02/22 06:31:36;;;;;;;14.75;8.83;;;;;;;4.79;71.79;98280.41;1722722;83;21104;-38
2022/02/22 06:34:04;;;;;;;15.93;10.35;;;;;;;4.80;71.87;98287.34;1719179;82;21049;-38
2022/02/22 06:36:34;;;;;;;15.28;9.88;;;;;;;4.83;71.95;98294.50;1708744;83;25196;-38
2022/02/22 06:39:02;;;;;;;10.35;7.20;;;;;;;4.85;71.97;98299.72;1708721;83;20992;-38
2022/02/22 06:41:28;;;;;;;16.42;9.05;;;;;;;4.92;72.12;98293.75;1708850;83;21581;-38
2022/02/22 06:43:55;;;;;;;14.90;9.35;;;;;;;5.01;71.95;98298.38;1708695;84;21065;-38
2022/02/22 06:46:21;;;;;;;12.65;9.03;;;;;;;5.06;71.79;98292.73;1709099;83;21609;-38
2022/02/22 06:48:47;;;;;;;16.70;9.73;;;;;;;5.09;71.85;98290.12;1708716;84;21563;-38
2022/02/22 06:51:14;;;;;;;14.80;9.30;;;;;;;5.13;71.21;98292.91;1708783;83;21554;-38
2022/02/22 06:53:41;;;;;;;15.50;8.90;;;;;;;5.13;70.56;98296.95;1701728;83;21070;-38
2022/02/22 06:56:07;;;;;;;18.48;11.48;;;;;;;5.15;70.38;98299.48;1700743;84;21037;-38
2022/02/22 06:58:34;;;;;;;29.63;15.78;;;;;;;5.20;69.72;98305.16;1700777;83;21066;-38
2022/02/22 07:01:00;;;;;;;29.72;15.85;;;;;;;5.20;69.35;98306.50;1700624;84;21222;-38
2022/02/22 07:03:27;;;;;;;37.95;18.20;;;;;;;5.18;69.59;98310.11;1700518;84;21073;-38
2022/02/22 07:05:53;;;;;;;26.15;13.22;;;;;;;5.14;69.25;98303.30;1700818;83;21563;-38
2022/02/22 07:08:20;;;;;;;18.23;11.03;;;;;;;5.12;69.16;98308.81;1700437;83;20993;-38
2022/02/22 07:10:46;;;;;;;18.52;10.03;;;;;;;5.08;69.05;98304.68;1700495;84;21033;-38
2022/02/22 07:13:14;;;;;;;17.77;10.30;;;;;;;5.06;68.63;98315.02;1700645;84;21147;-38
2022/02/22 07:15:40;;;;;;;17.07;10.68;;;;;;;5.08;68.74;98309.30;1700348;83;21017;-38
2022/02/22 07:18:13;;;;;;;14.43;8.98;;;;;;;5.06;68.66;98307.52;1700414;83;21032;-38
2022/02/22 07:20:37;;;;;;;;;;;;;;;5.06;69.04;98316.91;1702578;84;20994;-39
2022/02/22 07:23:04;;;;;;;14.45;8.03;;;;;;;5.02;68.56;98316.84;1700514;84;20210;-39
2022/02/22 07:25:31;;;;;;;13.75;8.25;;;;;;;4.92;68.87;98316.58;1700435;84;21141;-39
2022/02/22 07:27:59;;;;;;;11.05;8.05;;;;;;;4.97;69.00;98317.66;1700559;83;21035;-39
2022/02/22 07:30:26;;;;;;;13.98;8.33;;;;;;;5.06;68.93;98327.09;1701015;84;20942;-39
2022/02/22 07:32:58;;;;;;;11.53;7.35;;;;;;;5.14;68.19;98330.16;1704885;83;20989;-39
2022/02/22 07:35:24;;;;;;;11.70;6.97;;;;;;;5.16;67.85;98321.77;1737868;82;21045;-39
2022/02/22 07:37:52;;;;;;;11.53;7.25;;;;;;;5.20;67.66;98336.05;1737532;82;21142;-39
2022/02/22 07:40:19;;;;;;;12.80;7.75;;;;;;;5.23;66.90;98326.72;1737500;82;21005;-39
2022/02/22 07:42:46;;;;;;;9.75;5.92;;;;;;;5.31;66.88;98330.93;1737251;82;20981;-39
2022/02/22 07:45:14;;;;;;;8.18;5.67;;;;;;;5.41;67.18;98326.36;1737108;82;21013;-39
2022/02/22 07:47:41;;;;;;;10.03;5.85;;;;;;;5.58;66.44;98333.47;1737102;82;21598;-39
2022/02/22 07:50:09;;;;;;;8.45;5.62;;;;;;;5.73;65.71;98329.73;1729781;83;21125;-39
2022/02/22 07:52:36;;;;;;;11.53;5.37;;;;;;;5.84;65.02;98331.53;1730895;82;21006;-39
2022/02/22 07:55:05;;;;;;;9.35;5.00;;;;;;;5.92;64.45;98327.88;1748623;81;21471;-39
2022/02/22 07:57:32;;;;;;;6.37;4.53;;;;;;;6.05;64.09;98326.59;1748785;82;21033;-39
2022/02/22 07:59:59;;;;;;;7.67;4.33;;;;;;;6.19;62.18;98325.34;1748847;82;21005;-39
2022/02/22 08:02:25;;;;;;;7.47;4.60;;;;;;;6.26;60.83;98331.63;1748658;82;21806;-39
2022/02/22 08:04:52;;;;;;;9.50;5.25;;;;;;;6.37;60.39;98328.58;1748408;81;21068;-39
2022/02/22 08:07:21;;;;;;;9.85;5.55;;;;;;;6.53;60.66;98331.93;1748514;81;20969;-39
2022/02/22 08:09:48;;;;;;;7.83;5.20;;;;;;;6.68;60.58;98333.56;1748513;82;21093;-39
2022/02/22 08:12:15;;;;;;;10.28;5.12;;;;;;;6.83;59.78;98336.68;1748516;81;21515;-39
2022/02/22 08:14:42;;;;;;;7.67;4.92;;;;;;;6.97;59.48;98335.00;1748434;82;21208;-39
2022/02/22 08:17:09;;;;;;;8.63;4.55;;;;;;;7.12;58.53;98337.36;1748571;81;21036;-39
2022/02/22 08:19:36;;;;;;;8.88;5.03;;;;;;;7.23;58.43;98338.31;1748648;82;21084;-39
2022/02/22 08:22:04;;;;;;;8.03;4.92;;;;;;;7.37;58.62;98340.44;1748676;82;21539;-39
2022/02/22 08:24:32;;;;;;;7.72;4.85;;;;;;;7.53;58.87;98342.42;1748599;82;20957;-38
2022/02/22 08:27:00;;;;;;;7.62;5.28;;;;;;;7.72;57.20;98340.17;1748668;82;21125;-38
2022/02/22 08:29:27;;;;;;;8.63;4.78;;;;;;;7.91;57.92;98338.70;1748827;82;21004;-38
2022/02/22 08:31:53;;;;;;;8.13;4.20;;;;;;;8.09;57.17;98347.78;1748507;82;21021;-38
2022/02/22 08:34:20;;;;;;;7.87;4.35;;;;;;;8.21;55.84;98342.73;1748685;81;20994;-38
2022/02/22 08:36:47;;;;;;;6.75;4.35;;;;;;;8.31;55.36;98342.68;1748395;82;21007;-38
2022/02/22 08:39:14;;;;;;;9.95;5.22;;;;;;;8.38;53.89;98346.80;1748405;82;21200;-38
2022/02/22 08:41:40;;;;;;;8.95;4.85;;;;;;;8.46;54.73;98344.39;1748328;81;21033;-38
2022/02/22 08:44:09;;;;;;;8.20;5.33;;;;;;;8.53;54.50;98347.16;1748464;81;21015;-38
2022/02/22 08:46:36;;;;;;;7.03;4.78;;;;;;;8.60;53.12;98352.65;1748390;82;21599;-38
2022/02/22 08:49:03;;;;;;;8.85;5.37;;;;;;;8.61;53.30;98346.11;1748570;82;20993;-39
2022/02/22 08:51:30;;;;;;;8.08;5.20;;;;;;;8.66;53.71;98354.66;1748544;81;21175;-39
2022/02/22 08:53:57;;;;;;;7.17;4.80;;;;;;;8.77;53.44;98343.15;1740168;81;21520;-39
2022/02/22 08:56:23;;;;;;;10.32;4.70;;;;;;;8.87;51.28;98341.91;1742841;82;21043;-39
2022/02/22 08:58:52;;;;;;;7.65;4.62;;;;;;;8.99;50.58;98340.86;1742616;82;21539;-39
2022/02/22 09:01:19;;;;;;;7.22;4.35;;;;;;;9.12;51.20;98350.23;1742631;82;21088;-39
2022/02/22 09:03:45;;;;;;;5.67;4.35;;;;;;;9.30;50.83;98359.25;1742644;82;21960;-39
2022/02/22 09:06:12;;;;;;;10.00;5.50;;;;;;;9.43;48.66;98351.64;1742556;82;21073;-39
2022/02/22 09:08:40;;;;;;;9.78;4.72;;;;;;;9.56;49.62;98363.70;1742672;81;20938;-39
2022/02/22 09:11:07;;;;;;;8.05;5.22;;;;;;;9.66;49.42;98364.35;1742557;82;20973;-39
2022/02/22 09:13:33;;;;;;;7.12;4.12;;;;;;;9.74;49.45;98356.47;1742660;82;21022;-39
2022/02/22 09:16:00;;;;;;;7.53;3.62;;;;;;;9.84;47.08;98359.81;1742890;81;21083;-39
2022/02/22 09:18:27;;;;;;;5.53;3.72;;;;;;;9.94;47.03;98361.80;1742734;82;21064;-39
2022/02/22 09:20:53;;;;;;;6.72;3.62;;;;;;;9.98;46.24;98356.41;1742793;82;21049;-39
2022/02/22 09:23:20;;;;;;;6.55;3.52;;;;;;;9.97;44.43;98348.85;1742693;82;21614;-39
2022/02/22 09:25:46;;;;;;;6.92;3.50;;;;;;;9.96;44.53;98356.80;1742794;82;21069;-39
2022/02/22 09:28:13;;;;;;;3.67;2.80;;;;;;;9.98;45.42;98345.56;1743072;82;21908;-39
2022/02/22 09:30:39;;;;;;;6.08;2.87;;;;;;;10.07;43.49;98339.83;1742728;82;21523;-40
2022/02/22 09:33:07;;;;;;;4.33;2.52;;;;;;;10.17;43.93;98346.66;1742745;81;20938;-39
2022/02/22 09:35:35;;;;;;;6.42;2.58;;;;;;;10.27;42.10;98349.20;1742591;82;21089;-39
2022/02/22 09:38:01;;;;;;;5.45;2.40;;;;;;;10.33;41.24;98345.75;1742555;82;21002;-39
2022/02/22 09:40:30;;;;;;;5.40;2.70;;;;;;;10.41;40.06;98339.19;1742802;82;22042;-39
2022/02/22 09:42:57;;;;;;;4.42;2.45;;;;;;;10.48;40.15;98352.00;1742845;82;21025;-39
2022/02/22 09:45:25;;;;;;;5.00;2.10;;;;;;;10.54;38.85;98355.89;1742742;82;21041;-39
2022/02/22 09:47:55;;;;;;;4.42;2.62;;;;;;;10.61;40.21;98350.47;1742819;82;21096;-39
2022/02/22 09:50:21;;;;;;;4.72;2.05;;;;;;;10.68;39.25;98346.44;1742735;82;21088;-39
2022/02/22 09:52:48;;;;;;;4.87;2.15;;;;;;;10.71;37.08;98344.30;1742589;82;21145;-39
2022/02/22 09:55:15;;;;;;;3.22;2.10;;;;;;;10.72;38.17;98343.15;1742782;82;21523;-39
2022/02/22 09:57:41;;;;;;;4.25;2.37;;;;;;;10.80;38.80;98355.55;1742591;81;21041;-39
2022/02/22 10:00:26;;;;;;;5.17;2.35;;;;;;;10.85;39.09;98347.03;1742930;82;21096;-39
2022/02/22 10:02:53;;;;;;;5.05;2.58;;;;;;;10.89;39.75;98350.52;1742834;82;21045;-39
2022/02/22 10:05:22;;;;;;;8.75;2.72;;;;;;;10.93;39.15;98353.27;1742673;82;21141;-39
2022/02/22 10:08:00;;;;;;;6.12;2.22;;;;;;;10.97;39.57;98356.75;1716654;82;20957;-39
2022/02/22 10:10:41;;;;;;;4.67;2.87;;;;;;;11.00;40.13;98349.19;1696887;84;20965;-39
2022/02/22 10:13:09;;;;;;;6.83;2.42;;;;;;;11.02;39.81;98358.30;1706756;84;21029;-40
2022/02/22 10:15:41;;;;;;;3.42;2.30;;;;;;;11.12;40.06;98356.17;1761468;81;21048;-40
2022/02/22 10:18:08;;;;;;;6.97;3.02;;;;;;;11.21;40.28;98348.42;1723481;83;21135;-39
2022/02/22 10:20:36;;;;;;;5.03;2.72;;;;;;;11.30;39.69;98355.02;1708426;83;21005;-40
2022/02/22 10:23:04;;;;;;;4.72;2.70;;;;;;;11.38;40.10;98359.06;1713347;83;21021;-39
2022/02/22 10:25:30;;;;;;;4.17;2.42;;;;;;;11.44;39.00;98358.30;1713325;83;21650;-39
2022/02/22 10:27:59;;;;;;;7.90;3.12;;;;;;;11.47;38.15;98354.82;1713347;83;21033;-40
2022/02/22 10:30:39;;;;;;;5.13;2.93;;;;;;;11.55;39.32;98352.86;1713579;82;21115;-40
2022/02/22 10:33:25;;;;;;;4.22;2.65;;;;;;;11.63;38.15;98342.17;1721195;82;26792;-40
2022/02/22 10:35:58;;;;;;;6.97;2.70;;;;;;;11.68;39.12;98342.55;1743010;82;21032;-39
2022/02/22 10:38:28;;;;;;;6.22;2.77;;;;;;;11.67;36.31;98350.50;1743340;81;20938;-39
2022/02/22 10:41:05;;;;;;;6.25;3.20;;;;;;;11.68;35.99;98346.63;1743179;81;21551;-39
2022/02/22 10:43:35;;;;;;;5.22;2.83;;;;;;;11.71;35.12;98349.16;1742986;81;21131;-40
2022/02/22 10:46:05;;;;;;;6.58;2.98;;;;;;;11.72;36.41;98346.61;1743334;81;20997;-40
2022/02/22 10:48:41;;;;;;;6.85;3.08;;;;;;;11.53;35.91;98295.47;1743083;82;21080;-40
2022/02/22 10:51:14;;;;;;;6.80;2.72;;;;;;;11.91;35.95;98334.59;1743054;82;21053;-40
2022/02/22 10:53:44;;;;;;;7.05;2.98;;;;;;;11.98;36.80;98339.41;1746397;81;21475;-41
2022/02/22 10:56:13;;;;;;;5.58;3.10;;;;;;;12.07;35.24;98344.42;1752463;81;21812;-40
2022/02/22 10:58:43;;;;;;;7.90;3.17;;;;;;;12.17;34.59;98336.81;1751878;81;20929;-40
2022/02/22 11:01:13;;;;;;;7.58;4.47;;;;;;;12.28;35.36;98349.78;1751907;81;20977;-40
2022/02/22 11:03:43;;;;;;;6.35;3.15;;;;;;;12.35;35.26;98345.66;1752165;81;21514;-40
2022/02/22 11:06:11;;;;;;;6.60;2.83;;;;;;;12.46;35.27;98351.05;1752045;81;21598;-40
2022/02/22 11:08:46;;;;;;;4.72;2.45;;;;;;;12.56;34.80;98348.28;1752115;81;21107;-40
2022/02/22 11:11:18;;;;;;;5.05;2.52;;;;;;;12.60;34.93;98335.44;1752134;81;21049;-40
2022/02/22 11:13:58;;;;;;;8.83;4.40;;;;;;;12.56;35.94;98348.28;1752249;81;20973;-40
2022/02/22 11:16:25;;;;;;;5.70;2.80;;;;;;;12.53;34.95;98336.85;1751903;81;21530;-40
2022/02/22 11:18:54;;;;;;;8.63;3.25;;;;;;;12.51;35.27;98346.56;1743019;81;21027;-40
2022/02/22 11:21:24;;;;;;;4.95;3.10;;;;;;;12.52;36.33;98346.17;1738713;82;21132;-40
2022/02/22 11:24:03;;;;;;;6.42;3.30;;;;;;;12.53;35.55;98351.80;1737552;82;20936;-40
2022/02/22 11:26:44;;;;;;;6.33;3.35;;;;;;;12.50;35.10;98345.78;1738652;81;21011;-40
2022/02/22 11:29:11;;;;;;;8.98;3.47;;;;;;;12.44;36.23;98347.36;1710974;82;21027;-40
2022/02/22 11:31:37;;;;;;;6.40;2.58;;;;;;;12.50;37.24;98346.37;1738776;81;21627;-40
2022/02/22 11:34:04;;;;;;;5.87;3.17;;;;;;;12.66;38.29;98332.30;1738734;82;21139;-40
2022/02/22 11:36:35;;;;;;;6.50;2.75;;;;;;;12.80;37.19;98336.30;1738702;82;20936;-40
2022/02/22 11:39:04;;;;;;;5.78;2.85;;;;;;;12.87;35.99;98336.26;1738790;81;21080;-40